.
WxDataArchive / Data Records for 2006-09-19
2006-09-18 September 2006 2006-09-20

Data Records for Tuesday, 19 September 2006

Time	Temp	Chill	HIndex	Humid	Dewpt	 Wind 	HiWind	WindDir	Rain 	Barom 
-----	----	-----	------	-----	-----	------	------	-------	-----	----- 
00:00	56.9	56.9	56.9	95	55.5	0	2	270	0.00	29.727 
00:05	56.9	56.9	56.9	95	55.5	0	2	270	0.00	29.727 
00:10	56.7	56.7	56.7	95	55.3	0	4	270	0.00	29.727 
00:15	56.7	56.7	56.7	95	55.3	1	4	248	0.00	29.733 
00:20	56.7	56.7	56.7	95	55.3	1	3	248	0.00	29.733 
00:25	56.7	56.7	56.7	95	55.3	0	1	270	0.00	29.733 
00:30	56.7	56.7	56.7	95	55.3	0	3	248	0.00	29.740 
00:35	56.7	56.7	56.7	95	55.3	1	5	248	0.00	29.740 
00:40	56.7	56.7	56.7	94	55.0	1	4	248	0.00	29.740 
00:45	56.7	56.7	56.7	94	55.0	1	4	248	0.00	29.742 
00:50	56.7	56.7	56.7	94	55.0	0	2	248	0.00	29.742 
00:55	56.7	56.7	56.7	94	55.0	0	2	248	0.00	29.742 
01:00	56.7	56.7	56.7	94	55.0	1	2	248	0.00	29.744 
01:05	56.7	56.7	56.7	93	54.7	1	4	248	0.00	29.744 
01:10	56.7	56.7	56.7	93	54.7	1	2	248	0.00	29.744 
01:15	56.7	56.7	56.7	93	54.7	1	3	248	0.00	29.744 
01:20	56.6	56.6	56.6	93	54.6	0	1	248	0.00	29.744 
01:25	56.6	56.6	56.6	93	54.6	1	3	248	0.00	29.744 
01:30	56.6	56.6	56.6	92	54.3	1	2	248	0.00	29.745 
01:35	56.5	56.5	56.5	92	54.2	0	2	248	0.00	29.745 
01:40	56.5	56.5	56.5	92	54.2	1	2	248	0.00	29.745 
01:45	56.3	56.3	56.3	92	54.0	0	2	248	0.00	29.747 
01:50	56.2	56.2	56.2	92	53.9	0	1	248	0.00	29.747 
01:55	56.0	56.0	56.0	91	53.4	0	2	248	0.00	29.747 
02:00	55.9	55.9	55.9	91	53.3	0	1	248	0.00	29.746 
02:05	55.7	55.7	55.7	91	53.1	0	1	248	0.00	29.746 
02:10	55.7	55.7	55.7	91	53.1	0	1	248	0.00	29.746 
02:15	55.6	55.6	55.6	91	53.0	0	1	248	0.00	29.748 
02:20	55.4	55.4	55.4	91	52.8	0	2	248	0.00	29.748 
02:25	55.3	55.3	55.3	91	52.7	0	2	248	0.00	29.748 
02:30	55.3	55.3	55.3	90	52.4	0	1	248	0.00	29.753 
02:35	55.1	55.1	55.1	90	52.2	0	1	248	0.00	29.753 
02:40	55.0	55.0	55.0	90	52.1	0	0	---	0.00	29.753 
02:45	54.8	54.8	54.8	90	51.9	0	1	248	0.00	29.753 
02:50	54.7	54.7	54.7	90	51.8	0	2	248	0.00	29.753 
02:55	54.7	54.7	54.7	88	51.2	1	4	292	0.00	29.753 
03:00	54.7	54.7	54.7	87	50.9	0	2	315	0.00	29.760 
03:05	54.5	54.5	54.5	86	50.4	0	1	315	0.00	29.760 
03:10	54.4	54.4	54.4	87	50.6	0	1	315	0.00	29.760 
03:15	54.2	54.2	54.2	87	50.4	0	1	315	0.00	29.762 
03:20	53.9	53.9	53.9	88	50.4	0	1	315	0.00	29.762 
03:25	53.8	53.8	53.8	88	50.3	0	1	315	0.00	29.762 
03:30	53.6	53.6	53.6	88	50.1	0	1	315	0.00	29.761 
03:35	53.3	53.3	53.3	88	49.8	0	1	315	0.00	29.761 
03:40	53.2	53.2	53.2	88	49.7	0	1	315	0.00	29.761 
03:45	53.1	53.1	53.1	88	49.6	0	1	315	0.00	29.765 
03:50	52.9	52.9	52.9	87	49.1	1	3	292	0.00	29.765 
03:55	53.1	53.1	53.1	82	47.8	1	4	270	0.00	29.765 
04:00	53.1	53.1	53.1	82	47.8	1	2	292	0.00	29.765 
04:05	53.1	53.1	53.1	81	47.4	0	2	270	0.00	29.765 
04:10	52.8	52.8	52.8	82	47.5	0	1	270	0.00	29.765 
04:15	52.6	52.6	52.6	83	47.6	0	1	270	0.00	29.768 
04:20	52.3	52.3	52.3	84	47.6	0	2	270	0.00	29.768 
04:25	52.2	52.2	52.2	84	47.5	0	2	270	0.00	29.768 
04:30	51.9	51.9	51.9	84	47.2	0	1	270	0.00	29.768 
04:35	51.7	51.7	51.7	84	47.0	1	2	270	0.00	29.768 
04:40	51.6	51.6	51.6	84	46.9	0	2	270	0.00	29.768 
04:45	51.4	51.4	51.4	84	46.7	0	1	270	0.00	29.769 
04:50	51.3	51.3	51.3	84	46.6	0	2	270	0.00	29.769 
04:55	51.1	51.1	51.1	84	46.4	0	3	270	0.00	29.769 
05:00	51.0	51.0	51.0	84	46.3	0	1	270	0.00	29.774 
05:05	50.8	50.8	50.8	84	46.1	1	2	248	0.00	29.774 
05:10	50.7	50.7	50.7	84	46.0	1	3	248	0.00	29.774 
05:15	50.5	50.5	50.5	84	45.8	1	3	248	0.00	29.780 
05:20	50.4	50.4	50.4	84	45.7	0	2	248	0.00	29.780 
05:25	50.2	50.2	50.2	84	45.6	0	1	248	0.00	29.780 
05:30	50.1	50.1	50.1	84	45.5	0	1	248	0.00	29.783 
05:35	49.9	49.9	49.9	84	45.3	0	2	248	0.00	29.783 
05:40	49.8	49.8	49.8	84	45.2	1	2	248	0.01	29.783 
05:45	49.6	49.6	49.6	84	45.0	0	3	248	0.00	29.786 
05:50	49.5	49.5	49.5	84	44.9	1	2	248	0.00	29.786 
05:55	49.4	49.4	49.4	84	44.8	0	2	248	0.00	29.786 
06:00	49.4	49.4	49.4	84	44.8	1	3	248	0.00	29.790 
06:05	49.4	49.4	49.4	83	44.5	1	3	248	0.00	29.790 
06:10	49.2	49.2	49.2	83	44.3	1	2	248	0.00	29.790 
06:15	49.2	49.2	49.2	83	44.3	0	2	248	0.00	29.793 
06:20	49.1	49.1	49.1	83	44.2	1	2	248	0.00	29.793 
06:25	48.9	48.9	48.9	83	44.0	1	3	270	0.00	29.793 
06:30	48.9	48.9	48.9	83	44.0	1	2	248	0.00	29.793 
06:35	48.8	48.8	48.8	83	43.9	0	3	248	0.00	29.793 
06:40	48.8	48.8	48.8	83	43.9	1	2	315	0.00	29.793 
06:45	48.8	48.8	48.8	83	43.9	0	2	270	0.00	29.794 
06:50	48.8	48.8	48.8	83	43.9	1	3	248	0.00	29.794 
06:55	48.6	48.6	48.6	83	43.7	1	2	248	0.00	29.794 
07:00	48.6	48.6	48.6	83	43.7	0	2	248	0.00	29.799 
07:05	48.5	48.5	48.5	83	43.6	0	1	248	0.00	29.799 
07:10	48.5	48.5	48.5	83	43.6	0	3	248	0.00	29.799 
07:15	48.3	48.3	48.3	84	43.7	0	2	248	0.00	29.799 
07:20	48.2	48.2	48.2	84	43.6	0	1	248	0.00	29.799 
07:25	48.2	48.2	48.2	84	43.6	1	3	248	0.00	29.799 
07:30	48.2	48.2	48.2	84	43.6	1	3	248	0.00	29.801 
07:35	48.0	48.0	48.0	84	43.4	0	2	248	0.00	29.801 
07:40	48.2	48.2	48.2	85	43.9	0	1	248	0.00	29.801 
07:45	48.0	48.0	48.0	84	43.4	0	1	248	0.00	29.804 
07:50	48.2	48.2	48.2	84	43.6	1	3	248	0.00	29.804 
07:55	48.3	48.3	48.3	84	43.7	1	3	248	0.00	29.804 
08:00	48.5	48.5	48.5	84	43.9	1	4	248	0.00	29.812 
08:05	48.6	48.6	48.6	84	44.0	0	2	248	0.00	29.812 
08:10	48.9	48.9	48.9	84	44.3	1	3	248	0.00	29.812 
08:15	49.1	49.1	49.1	83	44.2	1	3	248	0.00	29.816 
08:20	49.4	49.4	49.4	83	44.5	1	3	248	0.00	29.816 
08:25	49.5	49.5	49.5	82	44.2	1	4	270	0.00	29.816 
08:30	49.6	49.6	49.6	82	44.3	1	3	248	0.00	29.819 
08:35	49.9	49.9	49.9	82	44.6	1	3	270	0.00	29.819 
08:40	50.1	50.1	50.1	81	44.5	1	3	248	0.00	29.819 
08:45	50.2	50.2	50.2	81	44.6	2	4	248	0.00	29.820 
08:50	50.5	50.5	50.5	81	44.9	1	3	248	0.00	29.820 
08:55	50.7	50.7	50.7	81	45.1	1	3	248	0.00	29.820 
09:00	50.8	50.8	50.8	81	45.2	1	4	248	0.00	29.824 
09:05	51.0	51.0	51.0	80	45.0	1	4	248	0.00	29.824 
09:10	51.1	51.1	51.1	80	45.1	1	3	248	0.00	29.824 
09:15	51.4	51.4	51.4	81	45.8	1	4	248	0.00	29.824 
09:20	51.7	51.7	51.7	80	45.7	1	4	248	0.00	29.824 
09:25	51.9	51.9	51.9	80	45.9	1	5	270	0.00	29.824 
09:30	52.2	52.2	52.2	79	45.9	1	3	270	0.00	29.821 
09:35	52.3	52.3	52.3	79	46.0	1	4	270	0.00	29.821 
09:40	52.6	52.6	52.6	78	45.9	2	5	248	0.00	29.821 
09:45	53.1	53.1	53.1	78	46.4	1	4	248	0.00	29.818 
09:50	53.6	53.6	53.6	78	46.9	1	4	248	0.00	29.818 
09:55	54.1	54.1	54.1	76	46.7	2	4	248	0.00	29.818 
10:00	54.4	54.4	54.4	75	46.6	2	4	248	0.00	29.820 
10:05	54.7	54.7	54.7	75	46.9	2	4	248	0.00	29.820 
10:10	55.1	55.1	55.1	75	47.3	1	4	270	0.00	29.820 
10:15	55.4	55.4	55.4	72	46.5	2	4	270	0.00	29.822 
10:20	56.0	56.0	56.0	74	47.8	1	4	292	0.00	29.822 
10:25	56.5	56.5	56.5	72	47.6	2	5	248	0.00	29.822 
10:30	56.7	56.7	56.7	72	47.8	2	3	248	0.00	29.823 
10:35	57.0	57.0	57.0	69	46.9	2	4	248	0.00	29.823 
10:40	57.2	57.2	57.2	70	47.5	2	4	248	0.00	29.823 
10:45	57.3	57.3	57.3	70	47.6	2	4	270	0.00	29.823 
10:50	57.6	57.6	57.6	70	47.9	2	6	248	0.00	29.823 
10:55	58.0	58.0	58.0	68	47.5	2	10	248	0.00	29.823 
11:00	58.1	58.1	58.1	67	47.2	2	5	270	0.00	29.824 
11:05	58.3	58.3	58.3	67	47.4	2	4	270	0.00	29.824 
11:10	58.3	58.3	58.3	66	47.0	2	4	270	0.00	29.824 
11:15	58.4	58.4	58.4	69	48.3	2	4	248	0.00	29.826 
11:20	58.7	58.7	58.7	68	48.2	2	5	248	0.00	29.826 
11:25	59.2	59.2	59.2	71	49.8	2	4	248	0.00	29.826 
11:30	59.3	59.3	59.3	65	47.5	3	5	270	0.00	29.823 
11:35	58.9	58.9	58.9	66	47.6	3	7	270	0.00	29.823 
11:40	58.9	58.9	58.9	65	47.2	3	7	270	0.00	29.823 
11:45	59.3	59.3	59.3	64	47.1	3	7	248	0.00	29.825 
11:50	59.5	59.5	59.5	65	47.7	4	7	270	0.00	29.825 
11:55	59.8	59.8	59.8	64	47.6	3	9	248	0.00	29.825 
12:00	59.8	59.8	59.8	63	47.2	4	9	248	0.00	29.825 
12:05	60.1	60.1	60.1	62	47.0	3	6	270	0.00	29.825 
12:10	60.1	60.1	60.1	64	47.9	3	6	248	0.00	29.825 
12:15	60.9	60.9	60.9	63	48.2	2	4	248	0.00	29.823 
12:20	60.7	60.7	60.7	62	47.6	2	4	248	0.00	29.823 
12:25	60.1	60.1	60.1	65	48.3	2	5	248	0.00	29.823 
12:30	60.2	60.2	60.2	62	47.1	2	5	248	0.00	29.826 
12:35	60.1	60.1	60.1	62	47.0	4	7	270	0.00	29.826 
12:40	59.5	59.5	59.5	62	46.5	3	7	248	0.00	29.826 
12:45	59.3	59.3	59.3	64	47.1	2	8	248	0.00	29.825 
12:50	59.6	59.6	59.6	62	46.6	3	11	270	0.00	29.825 
12:55	59.6	59.6	59.6	63	47.0	2	5	270	0.00	29.825 
13:00	60.1	60.1	60.1	62	47.0	2	7	248	0.00	29.824 
13:05	59.6	59.6	59.6	60	45.7	2	5	270	0.00	29.824 
13:10	59.2	59.2	59.2	61	45.8	3	7	248	0.00	29.824 
13:15	58.6	58.6	58.6	64	46.5	3	6	248	0.00	29.827 
13:20	58.6	58.6	58.6	63	46.0	2	7	248	0.00	29.827 
13:25	58.3	58.3	58.3	64	46.2	2	5	270	0.00	29.827 
13:30	58.1	58.1	58.1	66	46.8	2	5	248	0.00	29.827 
13:35	57.8	57.8	57.8	65	46.1	2	5	248	0.00	29.827 
13:40	57.6	57.6	57.6	65	45.9	2	6	270	0.00	29.827 
13:45	57.6	57.6	57.6	65	45.9	2	4	248	0.00	29.827 
13:50	57.5	57.5	57.5	65	45.8	2	5	248	0.00	29.827 
13:55	57.6	57.6	57.6	64	45.5	2	4	248	0.00	29.827 
14:00	57.8	57.8	57.8	66	46.5	1	4	248	0.00	29.827 
14:05	58.3	58.3	58.3	64	46.2	2	5	248	0.00	29.827 
14:10	58.0	58.0	58.0	65	46.3	2	4	248	0.00	29.827 
14:15	57.8	57.8	57.8	65	46.1	2	4	248	0.00	29.831 
14:20	57.5	57.5	57.5	64	45.4	3	6	270	0.00	29.831 
14:25	57.3	57.3	57.3	65	45.6	2	5	270	0.00	29.831 
14:30	57.3	57.3	57.3	66	46.0	1	2	270	0.00	29.830 
14:35	57.3	57.3	57.3	67	46.4	1	3	270	0.00	29.830 
14:40	57.2	57.2	57.2	67	46.3	2	5	248	0.00	29.830 
14:45	57.0	57.0	57.0	65	45.4	2	6	270	0.00	29.829 
14:50	56.9	56.9	56.9	67	46.1	2	4	248	0.00	29.829 
14:55	56.9	56.9	56.9	67	46.1	2	6	248	0.00	29.829 
15:00	56.9	56.9	56.9	67	46.1	2	4	248	0.00	29.829 
15:05	57.0	57.0	57.0	66	45.8	2	5	270	0.00	29.829 
15:10	57.0	57.0	57.0	66	45.8	2	5	248	0.00	29.829 
15:15	56.9	56.9	56.9	66	45.7	2	4	248	0.00	29.832 
15:20	56.7	56.7	56.7	66	45.5	3	7	270	0.00	29.832 
15:25	56.6	56.6	56.6	67	45.8	2	5	270	0.00	29.832 
15:30	56.5	56.5	56.5	67	45.7	2	4	270	0.00	29.837 
15:35	56.3	56.3	56.3	67	45.5	2	9	270	0.00	29.837 
15:40	56.2	56.2	56.2	67	45.4	1	3	292	0.00	29.837 
15:45	56.2	56.2	56.2	68	45.8	1	2	248	0.00	29.845 
15:50	56.2	56.2	56.2	68	45.8	2	4	248	0.00	29.845 
15:55	56.2	56.2	56.2	67	45.4	2	6	248	0.00	29.845 
16:00	56.2	56.2	56.2	67	45.4	2	6	270	0.00	29.845 
16:05	56.2	56.2	56.2	68	45.8	2	5	270	0.00	29.845 
16:10	56.0	56.0	56.0	68	45.6	2	5	270	0.00	29.845 
16:15	55.7	55.7	55.7	67	44.9	2	5	270	0.00	29.847 
16:20	55.7	55.7	55.7	68	45.3	1	4	248	0.00	29.847 
16:25	55.7	55.7	55.7	68	45.3	1	4	270	0.00	29.847 
16:30	55.9	55.9	55.9	69	45.9	1	2	270	0.00	29.849 
16:35	55.9	55.9	55.9	69	45.9	1	3	270	0.00	29.849 
16:40	55.9	55.9	55.9	66	44.7	2	6	248	0.00	29.849 
16:45	55.7	55.7	55.7	68	45.3	2	4	270	0.00	29.850 
16:50	55.7	55.7	55.7	68	45.3	1	4	270	0.00	29.850 
16:55	55.4	55.4	55.4	67	44.6	2	6	270	0.00	29.850 
17:00	55.3	55.3	55.3	67	44.5	3	6	270	0.00	29.854 
17:05	55.1	55.1	55.1	67	44.3	2	5	270	0.00	29.854 
17:10	55.0	55.0	55.0	68	44.6	2	4	248	0.00	29.854 
17:15	55.0	55.0	55.0	68	44.6	2	4	270	0.00	29.853 
17:20	55.0	55.0	55.0	67	44.2	2	5	270	0.00	29.853 
17:25	55.0	55.0	55.0	69	45.0	2	4	270	0.00	29.853 
17:30	55.1	55.1	55.1	69	45.1	1	3	248	0.00	29.856 
17:35	55.1	55.1	55.1	71	45.9	1	3	292	0.00	29.856 
17:40	55.1	55.1	55.1	68	44.7	2	5	270	0.00	29.856 
17:45	55.0	55.0	55.0	69	45.0	1	4	270	0.00	29.863 
17:50	54.8	54.8	54.8	70	45.2	1	4	292	0.00	29.863 
17:55	54.5	54.5	54.5	70	44.9	2	5	248	0.00	29.863 
18:00	54.4	54.4	54.4	70	44.8	2	5	248	0.00	29.867 
18:05	54.4	54.4	54.4	71	45.2	1	3	270	0.00	29.867 
18:10	54.2	54.2	54.2	70	44.6	1	3	248	0.00	29.867 
18:15	54.2	54.2	54.2	71	45.0	1	3	248	0.00	29.868 
18:20	54.2	54.2	54.2	70	44.6	1	4	248	0.00	29.868 
18:25	54.2	54.2	54.2	71	45.0	1	3	248	0.00	29.868 
18:30	54.1	54.1	54.1	72	45.3	0	1	248	0.00	29.868 
18:35	54.1	54.1	54.1	71	44.9	1	3	248	0.00	29.868 
18:40	53.9	53.9	53.9	73	45.4	1	3	248	0.00	29.868 
18:45	53.8	53.8	53.8	74	45.7	1	3	248	0.00	29.868 
18:50	53.5	53.5	53.5	74	45.4	1	2	248	0.00	29.868 
18:55	53.5	53.5	53.5	74	45.4	0	1	248	0.00	29.868 
19:00	53.5	53.5	53.5	75	45.8	0	1	248	0.00	29.871 
19:05	53.3	53.3	53.3	76	45.9	0	1	292	0.00	29.871 
19:10	53.2	53.2	53.2	77	46.2	0	1	292	0.00	29.871 
19:15	53.1	53.1	53.1	77	46.1	1	4	270	0.00	29.879 
19:20	52.9	52.9	52.9	78	46.2	1	2	270	0.00	29.879 
19:25	52.5	52.5	52.5	80	46.5	1	3	292	0.00	29.879 
19:30	52.0	52.0	52.0	80	46.0	1	2	248	0.00	29.885 
19:35	51.6	51.6	51.6	82	46.3	1	3	292	0.00	29.885 
19:40	51.3	51.3	51.3	83	46.3	1	2	270	0.00	29.885 
19:45	51.1	51.1	51.1	83	46.1	0	3	270	0.00	29.887 
19:50	51.0	51.0	51.0	83	46.0	1	3	270	0.00	29.887 
19:55	51.0	51.0	51.0	81	45.4	1	3	292	0.00	29.887 
20:00	51.1	51.1	51.1	80	45.1	1	3	270	0.00	29.888 
20:05	51.1	51.1	51.1	81	45.5	1	4	270	0.00	29.888 
20:10	51.1	51.1	51.1	80	45.1	1	2	270	0.00	29.888 
20:15	51.1	51.1	51.1	81	45.5	0	2	270	0.00	29.883 
20:20	51.0	51.0	51.0	80	45.0	1	3	248	0.00	29.883 
20:25	51.0	51.0	51.0	79	44.7	0	3	248	0.00	29.883 
20:30	50.8	50.8	50.8	78	44.2	1	3	248	0.00	29.886 
20:35	50.8	50.8	50.8	77	43.9	1	3	248	0.00	29.886 
20:40	50.8	50.8	50.8	77	43.9	0	1	248	0.00	29.886 
20:45	50.5	50.5	50.5	77	43.6	1	2	248	0.00	29.894 
20:50	50.4	50.4	50.4	76	43.1	1	3	248	0.00	29.894 
20:55	50.4	50.4	50.4	77	43.5	1	3	248	0.00	29.894 
21:00	50.2	50.2	50.2	77	43.3	1	3	248	0.00	29.898 
21:05	50.2	50.2	50.2	76	42.9	1	3	248	0.00	29.898 
21:10	50.2	50.2	50.2	76	42.9	1	2	270	0.00	29.898 
21:15	50.2	50.2	50.2	77	43.3	0	2	270	0.00	29.897 
21:20	50.2	50.2	50.2	77	43.3	1	3	270	0.00	29.897 
21:25	50.2	50.2	50.2	76	42.9	1	3	248	0.00	29.897 
21:30	50.2	50.2	50.2	77	43.3	1	3	248	0.00	29.903 
21:35	50.1	50.1	50.1	77	43.2	1	3	248	0.00	29.903 
21:40	50.1	50.1	50.1	77	43.2	1	4	248	0.00	29.903 
21:45	50.1	50.1	50.1	77	43.2	0	2	270	0.00	29.900 
21:50	50.1	50.1	50.1	77	43.2	0	2	270	0.00	29.900 
21:55	50.1	50.1	50.1	77	43.2	1	3	248	0.00	29.900 
22:00	50.1	50.1	50.1	77	43.2	1	2	248	0.00	29.899 
22:05	50.1	50.1	50.1	78	43.5	1	4	248	0.00	29.899 
22:10	50.1	50.1	50.1	78	43.5	1	5	248	0.00	29.899 
22:15	50.1	50.1	50.1	78	43.5	1	3	248	0.00	29.896 
22:20	50.1	50.1	50.1	79	43.8	1	3	248	0.00	29.896 
22:25	50.1	50.1	50.1	78	43.5	1	3	248	0.00	29.896 
22:30	50.1	50.1	50.1	78	43.5	1	3	248	0.00	29.896 
22:35	50.1	50.1	50.1	78	43.5	1	4	270	0.00	29.896 
22:40	50.1	50.1	50.1	78	43.5	1	3	248	0.00	29.896 
22:45	50.1	50.1	50.1	79	43.8	1	2	248	0.00	29.896 
22:50	49.9	49.9	49.9	80	44.0	0	1	292	0.00	29.896 
22:55	49.9	49.9	49.9	80	44.0	1	5	270	0.00	29.896 
23:00	49.8	49.8	49.8	80	43.9	0	2	270	0.00	29.898 
23:05	49.8	49.8	49.8	80	43.9	1	2	315	0.00	29.898 
23:10	49.9	49.9	49.9	80	44.0	1	3	270	0.00	29.898 
23:15	49.9	49.9	49.9	81	44.3	1	3	270	0.00	29.901 
23:20	49.6	49.6	49.6	84	45.0	1	2	292	0.00	29.901 
23:25	49.4	49.4	49.4	85	45.1	0	2	292	0.00	29.901 
23:30	49.2	49.2	49.2	86	45.2	0	2	315	0.00	29.901 
23:35	49.2	49.2	49.2	87	45.5	0	2	315	0.00	29.901 
23:40	49.1	49.1	49.1	86	45.1	1	3	248	0.00	29.901 
23:45	49.1	49.1	49.1	86	45.1	0	2	248	0.00	29.900 
23:50	49.1	49.1	49.1	86	45.1	0	2	248	0.00	29.900 
23:55	49.2	49.2	49.2	86	45.2	0	2	248	0.00	29.900 

CoCoRaHS
IN-AL-39
A2 Web Hosting
Creative Commons License
GoDaddy
Look for:

loaded 2017-10-17 22:14:20 • last modified 2010-11-18 10:43:29
Privacy PolicyDisclaimer
• wx.awcolley.com is powered by PmWiki v.2002016 •
• all content (unless otherwise noted) © 2017 A W Colley